createdAt,value
2022-08-03T00:01:50.333Z,69.23
2022-08-03T00:04:18.810Z,69.31
2022-08-03T00:06:47.214Z,69.10
2022-08-03T00:09:16.021Z,68.76
2022-08-03T00:11:44.400Z,69.27
2022-08-03T00:14:12.747Z,69.42
2022-08-03T00:16:41.374Z,69.12
2022-08-03T00:19:11.292Z,69.12
2022-08-03T00:21:39.893Z,69.34
2022-08-03T00:24:08.419Z,69.57
2022-08-03T00:26:36.661Z,69.65
2022-08-03T00:29:05.257Z,69.90
2022-08-03T00:31:45.027Z,69.80
2022-08-03T00:34:36.687Z,70.29
2022-08-03T00:37:12.142Z,70.69
2022-08-03T00:39:43.722Z,70.73
2022-08-03T00:42:12.062Z,70.45
2022-08-03T00:44:41.834Z,70.60
2022-08-03T00:47:11.248Z,70.22
2022-08-03T00:49:42.162Z,70.31
2022-08-03T00:52:11.084Z,70.90
2022-08-03T00:54:40.324Z,71.03
2022-08-03T00:57:09.058Z,71.32
2022-08-03T00:59:38.455Z,71.30
2022-08-03T01:02:07.259Z,71.79
2022-08-03T01:04:35.531Z,72.08
2022-08-03T01:07:12.169Z,72.20
2022-08-03T01:09:46.271Z,72.30
2022-08-03T01:12:20.590Z,72.66
2022-08-03T01:14:53.113Z,72.61
2022-08-03T01:17:24.737Z,72.47
2022-08-03T01:19:55.660Z,72.36
2022-08-03T01:22:39.001Z,72.06
2022-08-03T01:25:15.380Z,71.92
2022-08-03T01:27:53.121Z,71.70
2022-08-03T01:30:25.543Z,71.55
2022-08-03T01:33:01.671Z,71.44
2022-08-03T01:35:35.426Z,71.31
2022-08-03T01:38:11.561Z,71.08
2022-08-03T01:40:41.972Z,71.00
2022-08-03T01:43:12.136Z,70.88
2022-08-03T01:45:44.962Z,70.96
2022-08-03T01:48:14.902Z,71.07
2022-08-03T01:50:44.064Z,71.34
2022-08-03T01:53:14.744Z,71.14
2022-08-03T01:55:44.326Z,71.19
2022-08-03T01:58:15.165Z,70.88
2022-08-03T02:00:47.381Z,70.60
2022-08-03T02:03:16.943Z,70.72
2022-08-03T02:05:46.664Z,70.42
2022-08-03T02:08:18.073Z,70.55
2022-08-03T02:10:47.794Z,70.84
2022-08-03T02:13:16.644Z,70.98
2022-08-03T02:15:47.534Z,70.79
2022-08-03T02:18:16.423Z,71.13
2022-08-03T02:20:45.332Z,71.32
2022-08-03T02:23:14.184Z,71.39
2022-08-03T02:25:45.045Z,71.81
2022-08-03T02:28:18.025Z,72.21
2022-08-03T02:30:51.807Z,72.28
2022-08-03T02:33:26.894Z,72.46
2022-08-03T02:35:55.603Z,72.46
2022-08-03T02:38:27.635Z,72.51
2022-08-03T02:40:57.034Z,72.89
2022-08-03T02:43:26.684Z,72.92
2022-08-03T02:45:56.494Z,72.81
2022-08-03T02:48:26.970Z,72.79
2022-08-03T02:50:56.123Z,72.73
2022-08-03T02:53:26.263Z,72.77
2022-08-03T02:55:55.174Z,72.66
2022-08-03T02:58:24.873Z,72.46
2022-08-03T03:00:53.803Z,72.59
2022-08-03T03:03:23.973Z,72.57
2022-08-03T03:05:57.705Z,72.33
2022-08-03T03:08:29.401Z,72.41
2022-08-03T03:10:58.414Z,72.49
2022-08-03T03:13:28.524Z,72.63
2022-08-03T03:15:58.293Z,72.83
2022-08-03T03:18:29.102Z,73.07
2022-08-03T03:20:58.134Z,73.22
2022-08-03T03:23:26.883Z,73.30
2022-08-03T03:25:56.540Z,73.20
2022-08-03T03:28:25.323Z,73.50
2022-08-03T03:30:53.814Z,73.84
2022-08-03T03:33:22.663Z,73.96
2022-08-03T03:35:53.334Z,74.60
2022-08-03T03:38:22.062Z,74.68
2022-08-03T03:40:50.837Z,74.75
2022-08-03T03:43:19.925Z,75.36
2022-08-03T03:45:49.043Z,75.47
2022-08-03T03:48:17.548Z,75.86
2022-08-03T03:50:45.923Z,75.76
2022-08-03T03:53:16.156Z,75.63
2022-08-03T03:55:59.297Z,75.53
2022-08-03T03:58:32.064Z,75.06
2022-08-03T04:01:00.996Z,74.83
2022-08-03T04:03:29.515Z,74.79
2022-08-03T04:06:08.573Z,74.88
2022-08-03T04:08:47.081Z,74.75
2022-08-03T04:11:21.362Z,74.67
2022-08-03T04:14:01.761Z,74.82
2022-08-03T04:16:32.940Z,74.81
2022-08-03T04:19:03.713Z,74.63
2022-08-03T04:21:34.039Z,74.64
2022-08-03T04:24:05.642Z,74.34
2022-08-03T04:26:36.706Z,74.47
2022-08-03T04:29:06.769Z,74.18
2022-08-03T04:31:36.653Z,74.29
2022-08-03T04:34:06.173Z,74.04
2022-08-03T04:36:38.642Z,73.98
2022-08-03T04:39:10.271Z,73.99
2022-08-03T04:42:06.994Z,73.78
2022-08-03T04:44:30.486Z,73.48
2022-08-03T04:46:59.874Z,73.30
2022-08-03T04:49:29.006Z,73.41
2022-08-03T04:51:57.610Z,73.05
2022-08-03T04:54:27.468Z,72.88
2022-08-03T04:56:56.044Z,72.24
2022-08-03T04:59:24.420Z,71.92
2022-08-03T05:01:53.187Z,71.50
2022-08-03T05:04:21.672Z,71.05
2022-08-03T05:06:54.825Z,70.51
2022-08-03T05:09:48.933Z,70.14
2022-08-03T05:12:13.861Z,69.59
2022-08-03T05:14:42.504Z,69.14
2022-08-03T05:17:12.191Z,68.92
2022-08-03T05:19:40.586Z,68.57
2022-08-03T05:22:10.041Z,68.22
2022-08-03T05:24:38.592Z,68.09
2022-08-03T05:27:06.969Z,68.16
2022-08-03T05:29:37.200Z,68.12
2022-08-03T05:32:08.290Z,68.05
2022-08-03T05:34:47.159Z,67.70
2022-08-03T05:37:16.602Z,67.73
2022-08-03T05:39:44.980Z,67.64
2022-08-03T05:42:13.609Z,67.68
2022-08-03T05:44:43.412Z,67.32
2022-08-03T05:47:11.885Z,67.26
2022-08-03T05:49:40.421Z,66.87
2022-08-03T05:52:13.921Z,66.50
2022-08-03T05:54:56.624Z,65.80
2022-08-03T05:57:26.445Z,65.44
2022-08-03T05:59:58.420Z,65.24
2022-08-03T06:02:27.554Z,65.27
2022-08-03T06:04:56.037Z,64.66
2022-08-03T06:07:24.772Z,63.63
2022-08-03T06:10:35.506Z,63.31
2022-08-03T06:12:42.299Z,62.93
2022-08-03T06:15:12.599Z,62.50
2022-08-03T06:17:47.633Z,62.15
2022-08-03T06:20:18.233Z,62.06
2022-08-03T06:22:51.130Z,61.90
2022-08-03T06:25:29.619Z,61.28
2022-08-03T06:27:58.075Z,60.87
2022-08-03T06:30:27.934Z,60.46
2022-08-03T06:32:56.902Z,60.48
2022-08-03T06:35:25.482Z,60.50
2022-08-03T06:37:53.991Z,60.44
2022-08-03T06:40:29.072Z,60.43
2022-08-03T06:42:57.508Z,60.36
2022-08-03T06:45:32.148Z,60.28
2022-08-03T06:48:04.551Z,60.07
2022-08-03T06:50:33.453Z,59.42
2022-08-03T06:53:02.190Z,58.90
2022-08-03T06:55:30.707Z,59.17
2022-08-03T06:58:00.099Z,58.84
2022-08-03T07:00:34.610Z,57.74
2022-08-03T07:03:03.104Z,57.37
2022-08-03T07:05:33.673Z,56.99
2022-08-03T07:08:03.925Z,57.19
2022-08-03T07:10:32.402Z,57.00
2022-08-03T07:13:00.730Z,56.84
2022-08-03T07:15:38.319Z,56.27
2022-08-03T07:18:24.605Z,55.61
2022-08-03T07:20:59.913Z,55.41
2022-08-03T07:23:28.801Z,55.16
2022-08-03T07:25:57.311Z,54.74
2022-08-03T07:28:25.801Z,54.16
2022-08-03T07:30:54.271Z,53.82
2022-08-03T07:33:24.769Z,53.98
2022-08-03T07:35:53.112Z,52.87
2022-08-03T07:38:21.739Z,52.33
2022-08-03T07:40:50.302Z,52.49
2022-08-03T07:43:19.092Z,52.41
2022-08-03T07:45:47.541Z,51.40
2022-08-03T07:48:16.032Z,51.03
2022-08-03T07:50:46.490Z,50.34
2022-08-03T07:53:14.960Z,49.75
2022-08-03T07:55:43.350Z,49.70
2022-08-03T07:58:19.179Z,49.67
2022-08-03T08:00:51.175Z,48.55
2022-08-03T08:03:19.846Z,49.13
2022-08-03T08:05:49.675Z,49.38
2022-08-03T08:08:18.181Z,49.26
2022-08-03T08:10:57.833Z,49.47
2022-08-03T08:13:27.343Z,47.97
2022-08-03T08:15:55.824Z,47.92
2022-08-03T08:18:24.522Z,47.38
2022-08-03T08:20:54.584Z,47.69
2022-08-03T08:23:42.032Z,47.26
2022-08-03T08:26:12.336Z,47.17
2022-08-03T08:28:41.069Z,45.95
2022-08-03T08:31:09.463Z,44.44
2022-08-03T08:34:02.711Z,43.18
2022-08-03T08:36:27.839Z,43.12
2022-08-03T08:38:56.611Z,42.08
2022-08-03T08:41:25.047Z,41.06
2022-08-03T08:44:00.988Z,41.24
2022-08-03T08:46:31.539Z,41.57
2022-08-03T08:49:00.651Z,40.72
2022-08-03T08:51:54.647Z,40.38
2022-08-03T08:54:27.474Z,40.42
2022-08-03T08:56:57.731Z,40.42
2022-08-03T08:59:26.728Z,41.13
2022-08-03T09:02:15.457Z,39.71
2022-08-03T09:04:45.891Z,40.03
2022-08-03T09:07:20.433Z,39.61
2022-08-03T09:10:07.598Z,39.08
2022-08-03T09:12:42.815Z,38.28
2022-08-03T09:15:18.877Z,37.63
2022-08-03T09:17:50.819Z,37.79
2022-08-03T09:20:20.625Z,37.75
2022-08-03T09:22:58.342Z,37.70
2022-08-03T09:25:30.999Z,37.52
2022-08-03T09:28:06.510Z,37.19
2022-08-03T09:30:35.943Z,37.11
2022-08-03T09:33:05.006Z,37.58
2022-08-03T09:35:53.047Z,37.17
2022-08-03T09:38:24.501Z,37.07
2022-08-03T09:40:58.877Z,37.16
2022-08-03T09:43:28.301Z,37.31
2022-08-03T09:46:05.227Z,36.00
2022-08-03T09:48:35.283Z,35.07
2022-08-03T09:51:12.865Z,34.31
2022-08-03T09:53:58.914Z,34.87
2022-08-03T09:56:40.152Z,34.35
2022-08-03T09:59:08.798Z,34.42
2022-08-03T10:01:37.598Z,34.50
2022-08-03T10:04:06.402Z,34.83
2022-08-03T10:06:34.793Z,34.78
2022-08-03T10:09:08.545Z,34.99
2022-08-03T10:11:41.223Z,32.73
2022-08-03T10:14:11.871Z,31.43
2022-08-03T10:16:41.213Z,31.05
2022-08-03T10:19:10.750Z,30.77
2022-08-03T10:21:40.743Z,31.08
2022-08-03T10:24:11.394Z,30.51
2022-08-03T10:26:50.003Z,30.82
2022-08-03T10:29:22.972Z,31.38
2022-08-03T10:31:57.568Z,31.33
2022-08-03T10:34:28.282Z,31.32
2022-08-03T10:36:58.711Z,30.88
2022-08-03T10:39:30.142Z,30.73
2022-08-03T10:41:59.995Z,31.05
2022-08-03T10:44:34.779Z,29.54
2022-08-03T10:47:03.463Z,28.59
2022-08-03T10:49:34.565Z,27.68
2022-08-03T10:52:11.359Z,28.72
2022-08-03T10:55:07.829Z,28.94
2022-08-03T10:57:49.801Z,30.29
2022-08-03T11:00:19.605Z,31.00
2022-08-03T11:02:58.785Z,31.08
2022-08-03T11:05:27.586Z,27.29
2022-08-03T11:08:11.143Z,27.01
2022-08-03T11:10:41.289Z,29.23
2022-08-03T11:13:10.706Z,27.77
2022-08-03T11:15:40.511Z,27.00
2022-08-03T11:18:11.267Z,26.70
2022-08-03T11:20:48.073Z,27.29
2022-08-03T11:23:17.484Z,27.84
2022-08-03T11:25:56.903Z,27.52
2022-08-03T11:28:30.521Z,30.05
2022-08-03T11:31:46.704Z,29.72
2022-08-03T11:34:10.490Z,27.31
2022-08-03T11:36:53.730Z,27.21
2022-08-03T11:39:22.751Z,24.99
2022-08-03T11:41:51.146Z,26.71
2022-08-03T11:44:34.612Z,27.06
2022-08-03T11:47:04.644Z,29.12
2022-08-03T11:49:33.268Z,30.04
2022-08-03T11:52:02.223Z,30.14
2022-08-03T11:54:31.223Z,30.64
2022-08-03T11:56:59.602Z,30.87
2022-08-03T11:59:34.243Z,29.24
2022-08-03T12:02:09.487Z,28.50
2022-08-03T12:04:51.614Z,28.07
2022-08-03T12:07:25.012Z,28.72
2022-08-03T12:10:09.833Z,29.34
2022-08-03T12:12:39.666Z,30.23
2022-08-03T12:15:10.483Z,29.38
2022-08-03T12:17:42.343Z,28.39
2022-08-03T12:20:12.124Z,26.96
2022-08-03T12:22:41.771Z,26.32
2022-08-03T12:25:38.466Z,25.67
2022-08-03T12:28:36.519Z,24.39
2022-08-03T12:31:02.904Z,24.95
2022-08-03T12:33:32.871Z,25.03
2022-08-03T12:36:06.575Z,25.11
2022-08-03T12:38:37.196Z,24.60
2022-08-03T12:41:13.812Z,24.11
2022-08-03T12:43:50.612Z,23.33
2022-08-03T12:46:20.021Z,25.21
2022-08-03T12:48:59.455Z,23.85
2022-08-03T12:51:29.921Z,24.86
2022-08-03T12:53:59.313Z,25.48
2022-08-03T12:56:28.063Z,25.74
2022-08-03T12:58:56.412Z,26.39
2022-08-03T13:01:28.001Z,26.30
2022-08-03T13:03:56.612Z,26.69
2022-08-03T13:06:25.977Z,26.79
2022-08-03T13:09:05.307Z,28.23
2022-08-03T13:11:58.256Z,28.71
2022-08-03T13:14:24.014Z,27.53
2022-08-03T13:16:52.570Z,28.01
2022-08-03T13:19:21.015Z,27.91
2022-08-03T13:21:53.627Z,28.33
2022-08-03T13:24:34.322Z,28.38
2022-08-03T13:28:02.255Z,26.67
2022-08-03T13:29:55.722Z,27.30
2022-08-03T13:32:24.474Z,27.95
2022-08-03T13:34:53.053Z,28.46
2022-08-03T13:37:22.293Z,27.15
2022-08-03T13:39:59.516Z,27.98
2022-08-03T13:42:33.551Z,27.25
2022-08-03T13:45:02.793Z,26.13
2022-08-03T13:47:31.465Z,26.61
2022-08-03T13:50:02.730Z,26.44
2022-08-03T13:52:33.679Z,25.64
2022-08-03T13:55:02.096Z,25.26
2022-08-03T13:58:02.349Z,26.59
2022-08-03T14:00:27.044Z,26.54
2022-08-03T14:03:03.833Z,25.54
2022-08-03T14:05:35.922Z,24.73
2022-08-03T14:08:05.948Z,25.25
2022-08-03T14:10:36.286Z,25.20
2022-08-03T14:13:05.226Z,25.38
2022-08-03T14:15:37.666Z,25.76
2022-08-03T14:18:15.323Z,26.57
2022-08-03T14:20:47.701Z,27.00
2022-08-03T14:23:19.564Z,27.17
2022-08-03T14:25:51.788Z,27.14
2022-08-03T14:28:22.774Z,27.19
2022-08-03T14:30:54.053Z,27.86
2022-08-03T14:33:22.645Z,27.94
2022-08-03T14:35:51.484Z,28.06
2022-08-03T14:38:20.109Z,28.15
2022-08-03T14:40:49.079Z,28.40
2022-08-03T14:43:20.400Z,28.58
2022-08-03T14:45:48.995Z,28.55
2022-08-03T14:50:30.652Z,29.32
2022-08-03T14:51:07.872Z,28.51
2022-08-03T14:53:36.189Z,28.37
2022-08-03T14:56:09.640Z,29.95
2022-08-03T14:58:39.215Z,29.52
2022-08-03T15:02:05.621Z,28.44
2022-08-03T15:03:58.813Z,28.17
2022-08-03T15:06:27.304Z,28.61
2022-08-03T15:09:21.554Z,28.77
2022-08-03T15:11:44.517Z,29.28
2022-08-03T15:14:13.515Z,29.44
2022-08-03T15:16:43.733Z,29.57
2022-08-03T15:20:00.341Z,29.53
2022-08-03T15:22:02.193Z,29.75
2022-08-03T15:24:30.735Z,29.66
2022-08-03T15:26:59.295Z,29.77
2022-08-03T15:30:06.791Z,30.57
2022-08-03T15:32:17.113Z,30.14
2022-08-03T15:34:50.319Z,29.61
2022-08-03T15:37:21.033Z,29.72
2022-08-03T15:39:59.558Z,30.24
2022-08-03T15:42:30.358Z,29.84
2022-08-03T15:44:58.796Z,30.75
2022-08-03T15:47:27.456Z,30.20
2022-08-03T15:49:58.093Z,29.74
2022-08-03T15:52:26.654Z,29.73
2022-08-03T15:54:55.088Z,30.03
2022-08-03T15:57:24.267Z,29.96
2022-08-03T15:59:52.653Z,30.09
2022-08-03T16:02:21.753Z,29.95
2022-08-03T16:04:50.202Z,30.56
2022-08-03T16:07:40.735Z,30.74
2022-08-03T16:10:30.836Z,30.87
2022-08-03T16:13:00.379Z,30.86
2022-08-03T16:15:29.372Z,30.82
2022-08-03T16:17:57.899Z,30.59
2022-08-03T16:20:31.108Z,30.37
2022-08-03T16:23:10.964Z,30.60
2022-08-03T16:25:40.474Z,31.92
2022-08-03T16:28:13.795Z,31.07
2022-08-03T16:30:43.763Z,30.56
2022-08-03T16:33:17.245Z,30.45
2022-08-03T16:35:46.685Z,31.52
2022-08-03T16:38:19.068Z,31.24
2022-08-03T16:40:51.890Z,31.07
2022-08-03T16:43:22.242Z,30.39
2022-08-03T16:45:50.895Z,30.40
2022-08-03T16:48:19.815Z,30.60
2022-08-03T16:50:48.744Z,30.96
2022-08-03T16:53:18.689Z,30.72
2022-08-03T16:56:05.580Z,30.65
2022-08-03T16:58:42.117Z,31.05
2022-08-03T17:01:22.038Z,30.98
2022-08-03T17:04:02.504Z,31.16
2022-08-03T17:06:34.208Z,31.87
2022-08-03T17:09:09.219Z,32.14
2022-08-03T17:11:44.071Z,32.25
2022-08-03T17:14:16.270Z,33.01
2022-08-03T17:16:52.648Z,32.91
2022-08-03T17:19:23.316Z,33.40
2022-08-03T17:22:01.392Z,33.30
2022-08-03T17:24:33.283Z,33.66
2022-08-03T17:27:08.650Z,33.26
2022-08-03T17:29:45.152Z,33.25
2022-08-03T17:32:18.343Z,33.53
2022-08-03T17:34:50.902Z,33.08
2022-08-03T17:37:50.660Z,32.94
2022-08-03T17:40:17.425Z,34.99
2022-08-03T17:42:50.503Z,37.34
2022-08-03T17:45:52.274Z,38.04
2022-08-03T17:48:25.217Z,38.98
2022-08-03T17:50:57.637Z,39.72
2022-08-03T17:53:31.163Z,40.42
2022-08-03T17:56:45.170Z,41.25
2022-08-03T17:58:59.878Z,41.71
2022-08-03T18:02:00.602Z,41.68
2022-08-03T18:04:41.292Z,41.59
2022-08-03T18:07:13.414Z,41.75
2022-08-03T18:10:03.903Z,42.07
2022-08-03T18:12:45.479Z,42.48
2022-08-03T18:15:21.396Z,42.88
2022-08-03T18:18:01.857Z,42.85
2022-08-03T18:20:40.411Z,42.47
2022-08-03T18:23:24.692Z,42.34
2022-08-03T18:26:00.848Z,42.33
2022-08-03T18:28:30.989Z,41.83
2022-08-03T18:31:01.887Z,41.93
2022-08-03T18:34:17.829Z,41.33
2022-08-03T18:36:30.619Z,41.17
2022-08-03T18:39:00.217Z,41.47
2022-08-03T18:41:33.029Z,41.77
2022-08-03T18:44:52.511Z,41.68
2022-08-03T18:47:28.518Z,41.00
2022-08-03T18:50:21.031Z,41.86
2022-08-03T18:52:53.552Z,42.02
2022-08-03T18:55:33.608Z,41.89
2022-08-03T18:58:09.889Z,41.99
2022-08-03T19:00:54.591Z,41.94
2022-08-03T19:03:43.242Z,41.88
2022-08-03T19:06:19.756Z,42.20
2022-08-03T19:08:51.859Z,42.37
2022-08-03T19:11:28.074Z,42.75
2022-08-03T19:13:59.445Z,42.82
2022-08-03T19:16:38.776Z,42.78
2022-08-03T19:19:10.569Z,42.96
2022-08-03T19:21:43.115Z,43.33
2022-08-03T19:24:14.001Z,44.12
2022-08-03T19:26:48.486Z,45.29
2022-08-03T19:29:22.844Z,45.38
2022-08-03T19:31:59.707Z,46.17
2022-08-03T19:34:33.092Z,46.11
2022-08-03T19:37:02.490Z,46.33
2022-08-03T19:39:31.876Z,46.74
2022-08-03T19:42:12.225Z,47.21
2022-08-03T19:44:52.369Z,47.17
2022-08-03T19:47:27.439Z,47.59
2022-08-03T19:50:10.305Z,47.79
2022-08-03T19:52:44.109Z,47.93
2022-08-03T19:55:12.886Z,47.84
2022-08-03T19:57:42.570Z,48.45
2022-08-03T20:00:13.972Z,48.41
2022-08-03T20:02:45.259Z,48.93
2022-08-03T20:05:15.315Z,48.52
2022-08-03T20:07:48.312Z,48.73
2022-08-03T20:10:17.879Z,49.59
2022-08-03T20:12:47.011Z,49.98
2022-08-03T20:15:22.189Z,50.42
2022-08-03T20:18:03.129Z,50.54
2022-08-03T20:20:35.349Z,50.65
2022-08-03T20:23:08.360Z,51.37
2022-08-03T20:25:48.767Z,51.33
2022-08-03T20:28:29.599Z,52.10
2022-08-03T20:30:58.179Z,52.57
2022-08-03T20:33:48.742Z,52.96
2022-08-03T20:36:18.570Z,53.32
2022-08-03T20:38:48.228Z,53.90
2022-08-03T20:41:16.901Z,54.41
2022-08-03T20:43:45.222Z,54.36
2022-08-03T20:46:31.015Z,54.54
2022-08-03T20:49:06.042Z,54.40
2022-08-03T20:51:49.991Z,54.83
2022-08-03T20:54:30.714Z,55.68
2022-08-03T20:57:03.601Z,56.16
2022-08-03T20:59:46.954Z,56.05
2022-08-03T21:02:28.798Z,56.60
2022-08-03T21:05:08.229Z,56.94
2022-08-03T21:08:04.222Z,57.13
2022-08-03T21:10:28.701Z,57.35
2022-08-03T21:16:12.012Z,57.23
2022-08-03T21:18:40.001Z,56.89
2022-08-03T21:21:11.752Z,56.77
2022-08-03T21:23:48.865Z,57.10
2022-08-03T21:26:17.990Z,57.42
2022-08-03T21:28:47.030Z,56.93
2022-08-03T21:31:24.671Z,56.57
2022-08-03T21:33:56.497Z,56.51
2022-08-03T21:36:27.297Z,56.17
2022-08-03T21:38:57.264Z,55.96
2022-08-03T21:41:26.399Z,56.83
2022-08-03T21:43:54.803Z,57.21
2022-08-03T21:46:23.416Z,57.67
2022-08-03T21:48:55.441Z,57.83
2022-08-03T21:51:25.471Z,58.44
2022-08-03T21:54:02.878Z,58.80
2022-08-03T21:56:36.275Z,59.07
2022-08-03T21:59:05.965Z,58.17
2022-08-03T22:01:35.368Z,58.01
2022-08-03T22:04:06.897Z,57.37
2022-08-03T22:06:36.121Z,56.94
2022-08-03T22:09:07.081Z,57.10
2022-08-03T22:11:35.941Z,56.77
2022-08-03T22:14:04.400Z,56.61
2022-08-03T22:16:33.785Z,56.99
2022-08-03T22:19:02.284Z,57.97
2022-08-03T22:21:36.361Z,58.22
2022-08-03T22:24:07.656Z,58.21
2022-08-03T22:26:37.030Z,58.25
2022-08-03T22:29:08.274Z,58.76
2022-08-03T22:31:58.081Z,59.80
2022-08-03T22:34:27.358Z,60.06
2022-08-03T22:37:00.339Z,60.64
2022-08-03T22:39:31.371Z,60.64
2022-08-03T22:42:00.128Z,61.14
2022-08-03T22:44:28.884Z,61.19
2022-08-03T22:46:57.750Z,61.17
2022-08-03T22:49:29.205Z,61.14
2022-08-03T22:51:57.754Z,61.12
2022-08-03T22:54:26.199Z,60.75
2022-08-03T22:56:56.344Z,60.61
2022-08-03T22:59:38.936Z,60.48
2022-08-03T23:02:15.143Z,61.01
2022-08-03T23:04:52.547Z,61.13
2022-08-03T23:07:22.283Z,60.97
2022-08-03T23:09:51.076Z,61.40
2022-08-03T23:12:21.610Z,61.36
2022-08-03T23:14:54.177Z,61.77
2022-08-03T23:17:23.985Z,62.42
2022-08-03T23:19:53.873Z,62.79
2022-08-03T23:22:30.370Z,63.88
2022-08-03T23:25:01.723Z,64.64
2022-08-03T23:27:31.754Z,65.26
2022-08-03T23:30:02.215Z,65.52
2022-08-03T23:32:31.594Z,66.06
2022-08-03T23:35:10.334Z,66.15
2022-08-03T23:38:04.203Z,66.03
2022-08-03T23:40:31.368Z,66.12
2022-08-03T23:43:02.636Z,65.89
2022-08-03T23:45:33.206Z,65.04
2022-08-03T23:48:01.637Z,64.22
2022-08-03T23:50:36.656Z,64.13
2022-08-03T23:53:10.526Z,63.87
2022-08-03T23:55:45.362Z,63.45
2022-08-03T23:58:21.548Z,63.42
